sensor_id;sensor_type;location;lat;lon;timestamp;P1;durP1;ratioP1;P2;durP2;ratioP2
71303;SDS011;59091;47.446;19.148;2022-10-26T00:00:36;10.85;;;5.43;;
71303;SDS011;59091;47.446;19.148;2022-10-26T00:03:02;13.68;;;5.43;;
71303;SDS011;59091;47.446;19.148;2022-10-26T00:05:27;10.88;;;6.00;;
71303;SDS011;59091;47.446;19.148;2022-10-26T00:07:52;11.05;;;6.10;;
71303;SDS011;59091;47.446;19.148;2022-10-26T00:10:18;11.07;;;6.18;;
71303;SDS011;59091;47.446;19.148;2022-10-26T00:12:47;8.98;;;6.28;;
71303;SDS011;59091;47.446;19.148;2022-10-26T00:15:13;12.27;;;7.38;;
71303;SDS011;59091;47.446;19.148;2022-10-26T00:17:39;11.10;;;6.72;;
71303;SDS011;59091;47.446;19.148;2022-10-26T00:20:04;12.23;;;6.53;;
71303;SDS011;59091;47.446;19.148;2022-10-26T00:22:30;9.98;;;6.18;;
71303;SDS011;59091;47.446;19.148;2022-10-26T00:24:55;8.68;;;5.97;;
71303;SDS011;59091;47.446;19.148;2022-10-26T00:27:21;15.32;;;6.80;;
71303;SDS011;59091;47.446;19.148;2022-10-26T00:29:46;11.35;;;6.30;;
71303;SDS011;59091;47.446;19.148;2022-10-26T00:32:11;13.90;;;7.00;;
71303;SDS011;59091;47.446;19.148;2022-10-26T00:34:37;11.27;;;6.85;;
71303;SDS011;59091;47.446;19.148;2022-10-26T00:37:02;16.58;;;7.10;;
71303;SDS011;59091;47.446;19.148;2022-10-26T00:39:28;9.73;;;6.47;;
71303;SDS011;59091;47.446;19.148;2022-10-26T00:41:53;9.70;;;6.15;;
71303;SDS011;59091;47.446;19.148;2022-10-26T00:47:27;10.50;;;5.55;;
71303;SDS011;59091;47.446;19.148;2022-10-26T00:50:19;10.20;;;5.50;;
71303;SDS011;59091;47.446;19.148;2022-10-26T00:52:48;12.48;;;6.10;;
71303;SDS011;59091;47.446;19.148;2022-10-26T00:55:17;12.38;;;6.15;;
71303;SDS011;59091;47.446;19.148;2022-10-26T00:57:45;7.85;;;5.88;;
71303;SDS011;59091;47.446;19.148;2022-10-26T01:00:11;11.50;;;6.20;;
71303;SDS011;59091;47.446;19.148;2022-10-26T01:02:37;7.82;;;5.55;;
71303;SDS011;59091;47.446;19.148;2022-10-26T01:05:03;13.15;;;5.90;;
71303;SDS011;59091;47.446;19.148;2022-10-26T01:07:30;9.02;;;6.00;;
71303;SDS011;59091;47.446;19.148;2022-10-26T01:09:56;11.40;;;5.82;;
71303;SDS011;59091;47.446;19.148;2022-10-26T01:12:22;10.27;;;6.05;;
71303;SDS011;59091;47.446;19.148;2022-10-26T01:14:47;15.27;;;6.15;;
71303;SDS011;59091;47.446;19.148;2022-10-26T01:31:11;11.77;;;6.57;;
71303;SDS011;59091;47.446;19.148;2022-10-26T01:33:51;12.05;;;6.28;;
71303;SDS011;59091;47.446;19.148;2022-10-26T01:36:37;8.75;;;5.78;;
71303;SDS011;59091;47.446;19.148;2022-10-26T01:39:27;12.73;;;6.22;;
71303;SDS011;59091;47.446;19.148;2022-10-26T01:42:15;11.45;;;6.35;;
71303;SDS011;59091;47.446;19.148;2022-10-26T01:44:44;17.48;;;6.45;;
71303;SDS011;59091;47.446;19.148;2022-10-26T01:47:13;11.52;;;6.20;;
71303;SDS011;59091;47.446;19.148;2022-10-26T01:49:44;12.05;;;6.20;;
71303;SDS011;59091;47.446;19.148;2022-10-26T01:52:13;13.63;;;6.45;;
71303;SDS011;59091;47.446;19.148;2022-10-26T01:54:39;13.30;;;6.30;;
71303;SDS011;59091;47.446;19.148;2022-10-26T01:57:05;11.13;;;6.15;;
71303;SDS011;59091;47.446;19.148;2022-10-26T02:05:30;12.95;;;6.82;;
71303;SDS011;59091;47.446;19.148;2022-10-26T02:14:07;11.95;;;6.47;;
71303;SDS011;59091;47.446;19.148;2022-10-26T02:16:51;11.63;;;6.45;;
71303;SDS011;59091;47.446;19.148;2022-10-26T02:21:48;10.73;;;6.28;;
71303;SDS011;59091;47.446;19.148;2022-10-26T02:24:18;12.18;;;6.68;;
71303;SDS011;59091;47.446;19.148;2022-10-26T02:26:46;12.73;;;6.57;;
71303;SDS011;59091;47.446;19.148;2022-10-26T02:29:15;10.15;;;6.53;;
71303;SDS011;59091;47.446;19.148;2022-10-26T02:31:43;12.80;;;6.32;;
71303;SDS011;59091;47.446;19.148;2022-10-26T02:34:12;10.68;;;6.30;;
71303;SDS011;59091;47.446;19.148;2022-10-26T02:36:41;15.40;;;6.53;;
71303;SDS011;59091;47.446;19.148;2022-10-26T02:39:08;12.35;;;6.28;;
71303;SDS011;59091;47.446;19.148;2022-10-26T02:41:35;10.82;;;6.40;;
71303;SDS011;59091;47.446;19.148;2022-10-26T02:44:06;12.02;;;6.63;;
71303;SDS011;59091;47.446;19.148;2022-10-26T02:46:37;12.25;;;6.25;;
71303;SDS011;59091;47.446;19.148;2022-10-26T02:49:03;13.00;;;6.72;;
71303;SDS011;59091;47.446;19.148;2022-10-26T02:51:30;12.45;;;6.70;;
71303;SDS011;59091;47.446;19.148;2022-10-26T02:54:08;11.65;;;6.63;;
71303;SDS011;59091;47.446;19.148;2022-10-26T02:59:16;14.63;;;6.30;;
71303;SDS011;59091;47.446;19.148;2022-10-26T03:01:45;11.88;;;7.28;;
71303;SDS011;59091;47.446;19.148;2022-10-26T03:04:11;11.98;;;6.65;;
71303;SDS011;59091;47.446;19.148;2022-10-26T03:06:37;13.88;;;6.97;;
71303;SDS011;59091;47.446;19.148;2022-10-26T03:09:02;16.55;;;6.82;;
71303;SDS011;59091;47.446;19.148;2022-10-26T03:11:28;12.77;;;6.20;;
71303;SDS011;59091;47.446;19.148;2022-10-26T03:13:53;17.70;;;6.90;;
71303;SDS011;59091;47.446;19.148;2022-10-26T03:16:18;17.55;;;7.30;;
71303;SDS011;59091;47.446;19.148;2022-10-26T03:18:44;27.27;;;7.78;;
71303;SDS011;59091;47.446;19.148;2022-10-26T03:21:09;15.88;;;7.63;;
71303;SDS011;59091;47.446;19.148;2022-10-26T03:23:35;11.98;;;6.75;;
71303;SDS011;59091;47.446;19.148;2022-10-26T03:26:00;14.13;;;7.15;;
71303;SDS011;59091;47.446;19.148;2022-10-26T03:28:25;14.60;;;7.45;;
71303;SDS011;59091;47.446;19.148;2022-10-26T03:30:51;12.25;;;7.03;;
71303;SDS011;59091;47.446;19.148;2022-10-26T03:33:17;13.68;;;7.53;;
71303;SDS011;59091;47.446;19.148;2022-10-26T03:35:42;14.45;;;7.53;;
71303;SDS011;59091;47.446;19.148;2022-10-26T03:38:08;18.20;;;7.57;;
71303;SDS011;59091;47.446;19.148;2022-10-26T03:40:34;15.30;;;7.65;;
71303;SDS011;59091;47.446;19.148;2022-10-26T03:43:00;14.77;;;8.43;;
71303;SDS011;59091;47.446;19.148;2022-10-26T03:45:26;16.90;;;8.13;;
71303;SDS011;59091;47.446;19.148;2022-10-26T03:47:51;15.13;;;8.20;;
71303;SDS011;59091;47.446;19.148;2022-10-26T03:50:18;14.45;;;8.07;;
71303;SDS011;59091;47.446;19.148;2022-10-26T03:52:45;12.88;;;8.10;;
71303;SDS011;59091;47.446;19.148;2022-10-26T03:55:11;15.85;;;7.78;;
71303;SDS011;59091;47.446;19.148;2022-10-26T03:57:40;15.80;;;7.03;;
71303;SDS011;59091;47.446;19.148;2022-10-26T04:00:07;15.48;;;8.23;;
71303;SDS011;59091;47.446;19.148;2022-10-26T04:02:33;13.57;;;8.10;;
71303;SDS011;59091;47.446;19.148;2022-10-26T04:04:59;15.30;;;8.40;;
71303;SDS011;59091;47.446;19.148;2022-10-26T04:07:24;18.20;;;8.45;;
71303;SDS011;59091;47.446;19.148;2022-10-26T04:09:49;16.42;;;8.05;;
71303;SDS011;59091;47.446;19.148;2022-10-26T04:12:15;15.07;;;8.55;;
71303;SDS011;59091;47.446;19.148;2022-10-26T04:14:40;18.92;;;9.10;;
71303;SDS011;59091;47.446;19.148;2022-10-26T04:17:05;14.48;;;8.82;;
71303;SDS011;59091;47.446;19.148;2022-10-26T04:19:31;13.35;;;8.25;;
71303;SDS011;59091;47.446;19.148;2022-10-26T04:21:56;15.07;;;8.95;;
71303;SDS011;59091;47.446;19.148;2022-10-26T04:24:22;17.45;;;8.80;;
71303;SDS011;59091;47.446;19.148;2022-10-26T04:26:47;18.17;;;9.60;;
71303;SDS011;59091;47.446;19.148;2022-10-26T04:29:12;14.88;;;8.48;;
71303;SDS011;59091;47.446;19.148;2022-10-26T04:31:38;18.65;;;9.38;;
71303;SDS011;59091;47.446;19.148;2022-10-26T04:34:03;16.52;;;9.13;;
71303;SDS011;59091;47.446;19.148;2022-10-26T04:36:29;21.98;;;9.68;;
71303;SDS011;59091;47.446;19.148;2022-10-26T04:38:54;15.13;;;9.90;;
71303;SDS011;59091;47.446;19.148;2022-10-26T04:41:20;24.50;;;10.00;;
71303;SDS011;59091;47.446;19.148;2022-10-26T04:43:45;17.40;;;9.98;;
71303;SDS011;59091;47.446;19.148;2022-10-26T04:46:10;17.50;;;10.23;;
71303;SDS011;59091;47.446;19.148;2022-10-26T04:48:38;21.52;;;10.45;;
71303;SDS011;59091;47.446;19.148;2022-10-26T04:51:03;21.08;;;11.25;;
71303;SDS011;59091;47.446;19.148;2022-10-26T04:53:29;26.88;;;12.55;;
71303;SDS011;59091;47.446;19.148;2022-10-26T04:55:55;29.58;;;13.15;;
71303;SDS011;59091;47.446;19.148;2022-10-26T04:58:24;24.48;;;12.88;;
71303;SDS011;59091;47.446;19.148;2022-10-26T05:00:50;25.38;;;12.13;;
71303;SDS011;59091;47.446;19.148;2022-10-26T05:03:15;26.17;;;14.10;;
71303;SDS011;59091;47.446;19.148;2022-10-26T05:05:40;32.35;;;14.80;;
71303;SDS011;59091;47.446;19.148;2022-10-26T05:08:06;27.95;;;15.02;;
71303;SDS011;59091;47.446;19.148;2022-10-26T05:10:31;27.55;;;14.43;;
71303;SDS011;59091;47.446;19.148;2022-10-26T05:12:57;33.42;;;13.95;;
71303;SDS011;59091;47.446;19.148;2022-10-26T05:15:24;28.95;;;13.80;;
71303;SDS011;59091;47.446;19.148;2022-10-26T05:17:54;28.15;;;13.38;;
71303;SDS011;59091;47.446;19.148;2022-10-26T05:20:21;24.85;;;12.48;;
71303;SDS011;59091;47.446;19.148;2022-10-26T05:22:53;24.25;;;13.07;;
71303;SDS011;59091;47.446;19.148;2022-10-26T05:25:18;22.95;;;11.95;;
71303;SDS011;59091;47.446;19.148;2022-10-26T05:27:44;23.17;;;12.85;;
71303;SDS011;59091;47.446;19.148;2022-10-26T05:30:09;22.08;;;11.63;;
71303;SDS011;59091;47.446;19.148;2022-10-26T05:32:35;21.70;;;11.65;;
71303;SDS011;59091;47.446;19.148;2022-10-26T05:35:00;22.27;;;11.15;;
71303;SDS011;59091;47.446;19.148;2022-10-26T05:37:29;21.83;;;11.38;;
71303;SDS011;59091;47.446;19.148;2022-10-26T05:39:54;19.13;;;10.90;;
71303;SDS011;59091;47.446;19.148;2022-10-26T05:42:20;20.15;;;12.52;;
71303;SDS011;59091;47.446;19.148;2022-10-26T05:44:45;23.05;;;11.63;;
71303;SDS011;59091;47.446;19.148;2022-10-26T05:47:11;19.80;;;11.75;;
71303;SDS011;59091;47.446;19.148;2022-10-26T05:49:36;19.08;;;12.02;;
71303;SDS011;59091;47.446;19.148;2022-10-26T05:52:02;25.20;;;12.15;;
71303;SDS011;59091;47.446;19.148;2022-10-26T05:54:27;21.00;;;12.40;;
71303;SDS011;59091;47.446;19.148;2022-10-26T05:56:53;24.58;;;12.35;;
71303;SDS011;59091;47.446;19.148;2022-10-26T05:59:19;23.52;;;11.80;;
71303;SDS011;59091;47.446;19.148;2022-10-26T06:02:01;20.25;;;11.43;;
71303;SDS011;59091;47.446;19.148;2022-10-26T06:04:37;19.45;;;11.68;;
71303;SDS011;59091;47.446;19.148;2022-10-26T06:07:12;22.08;;;11.95;;
71303;SDS011;59091;47.446;19.148;2022-10-26T06:09:44;30.83;;;13.88;;
71303;SDS011;59091;47.446;19.148;2022-10-26T06:12:10;23.45;;;12.55;;
71303;SDS011;59091;47.446;19.148;2022-10-26T06:14:36;25.67;;;14.00;;
71303;SDS011;59091;47.446;19.148;2022-10-26T06:32:48;29.52;;;15.50;;
71303;SDS011;59091;47.446;19.148;2022-10-26T06:38:06;33.80;;;17.77;;
71303;SDS011;59091;47.446;19.148;2022-10-26T06:40:36;32.75;;;17.92;;
71303;SDS011;59091;47.446;19.148;2022-10-26T06:43:08;40.17;;;18.45;;
71303;SDS011;59091;47.446;19.148;2022-10-26T06:45:37;37.03;;;16.70;;
71303;SDS011;59091;47.446;19.148;2022-10-26T06:48:07;31.02;;;17.23;;
71303;SDS011;59091;47.446;19.148;2022-10-26T06:50:35;39.20;;;16.98;;
71303;SDS011;59091;47.446;19.148;2022-10-26T06:56:06;27.27;;;14.98;;
71303;SDS011;59091;47.446;19.148;2022-10-26T06:58:35;27.30;;;14.40;;
71303;SDS011;59091;47.446;19.148;2022-10-26T07:01:01;23.50;;;13.88;;
71303;SDS011;59091;47.446;19.148;2022-10-26T07:03:27;28.60;;;14.95;;
71303;SDS011;59091;47.446;19.148;2022-10-26T07:05:52;28.33;;;14.32;;
71303;SDS011;59091;47.446;19.148;2022-10-26T07:08:18;29.08;;;15.68;;
71303;SDS011;59091;47.446;19.148;2022-10-26T07:10:44;24.08;;;14.43;;
71303;SDS011;59091;47.446;19.148;2022-10-26T07:13:10;22.38;;;13.45;;
71303;SDS011;59091;47.446;19.148;2022-10-26T07:15:36;22.15;;;12.07;;
71303;SDS011;59091;47.446;19.148;2022-10-26T07:18:03;25.15;;;12.30;;
71303;SDS011;59091;47.446;19.148;2022-10-26T07:20:30;19.83;;;11.50;;
71303;SDS011;59091;47.446;19.148;2022-10-26T07:22:56;27.67;;;11.82;;
71303;SDS011;59091;47.446;19.148;2022-10-26T07:25:22;29.63;;;14.68;;
71303;SDS011;59091;47.446;19.148;2022-10-26T07:27:49;27.45;;;14.50;;
71303;SDS011;59091;47.446;19.148;2022-10-26T07:30:15;25.20;;;14.27;;
71303;SDS011;59091;47.446;19.148;2022-10-26T07:32:41;27.17;;;13.40;;
71303;SDS011;59091;47.446;19.148;2022-10-26T07:35:06;31.17;;;13.82;;
71303;SDS011;59091;47.446;19.148;2022-10-26T07:37:32;18.60;;;11.00;;
71303;SDS011;59091;47.446;19.148;2022-10-26T07:39:57;17.60;;;10.32;;
71303;SDS011;59091;47.446;19.148;2022-10-26T07:42:22;14.98;;;9.73;;
71303;SDS011;59091;47.446;19.148;2022-10-26T07:44:48;17.23;;;9.23;;
71303;SDS011;59091;47.446;19.148;2022-10-26T07:47:14;16.10;;;10.23;;
71303;SDS011;59091;47.446;19.148;2022-10-26T07:49:39;15.02;;;10.15;;
71303;SDS011;59091;47.446;19.148;2022-10-26T07:52:05;18.98;;;10.40;;
71303;SDS011;59091;47.446;19.148;2022-10-26T07:54:30;17.23;;;10.82;;
71303;SDS011;59091;47.446;19.148;2022-10-26T07:56:56;15.02;;;9.48;;
71303;SDS011;59091;47.446;19.148;2022-10-26T07:59:22;13.85;;;9.00;;
71303;SDS011;59091;47.446;19.148;2022-10-26T08:01:48;13.90;;;8.75;;
71303;SDS011;59091;47.446;19.148;2022-10-26T08:04:13;12.20;;;8.43;;
71303;SDS011;59091;47.446;19.148;2022-10-26T08:06:39;9.50;;;7.20;;
71303;SDS011;59091;47.446;19.148;2022-10-26T08:09:04;11.63;;;7.57;;
71303;SDS011;59091;47.446;19.148;2022-10-26T08:11:30;13.45;;;7.85;;
71303;SDS011;59091;47.446;19.148;2022-10-26T08:13:55;12.00;;;7.93;;
71303;SDS011;59091;47.446;19.148;2022-10-26T08:16:21;11.52;;;7.55;;
71303;SDS011;59091;47.446;19.148;2022-10-26T08:18:47;10.75;;;7.25;;
71303;SDS011;59091;47.446;19.148;2022-10-26T08:21:13;11.32;;;7.75;;
71303;SDS011;59091;47.446;19.148;2022-10-26T08:23:39;10.32;;;8.00;;
71303;SDS011;59091;47.446;19.148;2022-10-26T08:26:05;12.23;;;7.80;;
71303;SDS011;59091;47.446;19.148;2022-10-26T08:28:31;12.23;;;7.72;;
71303;SDS011;59091;47.446;19.148;2022-10-26T08:30:57;13.25;;;8.05;;
71303;SDS011;59091;47.446;19.148;2022-10-26T08:33:22;12.68;;;8.02;;
71303;SDS011;59091;47.446;19.148;2022-10-26T08:35:53;12.57;;;7.95;;
71303;SDS011;59091;47.446;19.148;2022-10-26T08:38:22;12.73;;;7.60;;
71303;SDS011;59091;47.446;19.148;2022-10-26T08:40:48;12.07;;;7.90;;
71303;SDS011;59091;47.446;19.148;2022-10-26T08:48:47;20.83;;;10.48;;
71303;SDS011;59091;47.446;19.148;2022-10-26T08:51:21;15.70;;;10.13;;
71303;SDS011;59091;47.446;19.148;2022-10-26T08:53:51;19.48;;;10.80;;
71303;SDS011;59091;47.446;19.148;2022-10-26T08:57:01;19.10;;;10.90;;
71303;SDS011;59091;47.446;19.148;2022-10-26T09:01:58;21.80;;;11.02;;
71303;SDS011;59091;47.446;19.148;2022-10-26T09:04:27;22.05;;;11.40;;
71303;SDS011;59091;47.446;19.148;2022-10-26T09:13:48;20.02;;;10.80;;
71303;SDS011;59091;47.446;19.148;2022-10-26T09:26:32;16.80;;;9.40;;
71303;SDS011;59091;47.446;19.148;2022-10-26T09:29:04;12.18;;;7.78;;
71303;SDS011;59091;47.446;19.148;2022-10-26T09:31:32;17.63;;;10.35;;
71303;SDS011;59091;47.446;19.148;2022-10-26T09:34:03;17.92;;;10.15;;
71303;SDS011;59091;47.446;19.148;2022-10-26T09:36:30;18.55;;;10.63;;
71303;SDS011;59091;47.446;19.148;2022-10-26T09:41:49;12.95;;;8.38;;
71303;SDS011;59091;47.446;19.148;2022-10-26T09:49:27;13.43;;;8.57;;
71303;SDS011;59091;47.446;19.148;2022-10-26T09:52:01;13.73;;;8.48;;
71303;SDS011;59091;47.446;19.148;2022-10-26T09:54:27;14.45;;;9.25;;
71303;SDS011;59091;47.446;19.148;2022-10-26T09:56:53;23.17;;;8.90;;
71303;SDS011;59091;47.446;19.148;2022-10-26T09:59:22;20.50;;;9.45;;
71303;SDS011;59091;47.446;19.148;2022-10-26T10:01:49;18.30;;;9.70;;
71303;SDS011;59091;47.446;19.148;2022-10-26T10:04:16;18.85;;;9.23;;
71303;SDS011;59091;47.446;19.148;2022-10-26T10:06:51;21.30;;;10.10;;
71303;SDS011;59091;47.446;19.148;2022-10-26T10:09:25;21.73;;;9.57;;
71303;SDS011;59091;47.446;19.148;2022-10-26T10:11:52;22.15;;;9.57;;
71303;SDS011;59091;47.446;19.148;2022-10-26T10:16:53;27.83;;;11.25;;
71303;SDS011;59091;47.446;19.148;2022-10-26T10:22:00;29.50;;;11.05;;
71303;SDS011;59091;47.446;19.148;2022-10-26T10:24:34;22.20;;;10.80;;
71303;SDS011;59091;47.446;19.148;2022-10-26T10:29:42;23.17;;;11.13;;
71303;SDS011;59091;47.446;19.148;2022-10-26T10:32:15;26.65;;;11.07;;
71303;SDS011;59091;47.446;19.148;2022-10-26T10:34:44;26.33;;;11.18;;
71303;SDS011;59091;47.446;19.148;2022-10-26T10:37:21;18.80;;;10.10;;
71303;SDS011;59091;47.446;19.148;2022-10-26T10:39:57;26.67;;;12.27;;
71303;SDS011;59091;47.446;19.148;2022-10-26T10:42:25;31.58;;;11.55;;
71303;SDS011;59091;47.446;19.148;2022-10-26T10:44:54;23.15;;;10.23;;
71303;SDS011;59091;47.446;19.148;2022-10-26T10:47:22;16.95;;;7.35;;
71303;SDS011;59091;47.446;19.148;2022-10-26T10:50:03;13.98;;;7.57;;
71303;SDS011;59091;47.446;19.148;2022-10-26T10:52:33;14.93;;;7.70;;
71303;SDS011;59091;47.446;19.148;2022-10-26T10:55:09;14.80;;;7.93;;
71303;SDS011;59091;47.446;19.148;2022-10-26T11:00:12;16.35;;;7.75;;
71303;SDS011;59091;47.446;19.148;2022-10-26T11:08:29;19.13;;;8.57;;
71303;SDS011;59091;47.446;19.148;2022-10-26T11:11:12;16.30;;;8.57;;
71303;SDS011;59091;47.446;19.148;2022-10-26T11:16:36;15.20;;;8.40;;
71303;SDS011;59091;47.446;19.148;2022-10-26T11:19:10;14.73;;;7.75;;
71303;SDS011;59091;47.446;19.148;2022-10-26T11:21:47;15.05;;;7.43;;
71303;SDS011;59091;47.446;19.148;2022-10-26T11:24:39;14.00;;;7.75;;
71303;SDS011;59091;47.446;19.148;2022-10-26T11:27:24;13.10;;;6.97;;
71303;SDS011;59091;47.446;19.148;2022-10-26T11:30:02;11.43;;;7.63;;
71303;SDS011;59091;47.446;19.148;2022-10-26T11:35:20;17.45;;;6.93;;
71303;SDS011;59091;47.446;19.148;2022-10-26T11:40:39;15.30;;;7.43;;
71303;SDS011;59091;47.446;19.148;2022-10-26T11:43:20;13.45;;;6.82;;
71303;SDS011;59091;47.446;19.148;2022-10-26T11:46:01;11.20;;;6.63;;
71303;SDS011;59091;47.446;19.148;2022-10-26T11:51:38;15.57;;;8.50;;
71303;SDS011;59091;47.446;19.148;2022-10-26T11:54:50;17.10;;;8.35;;
71303;SDS011;59091;47.446;19.148;2022-10-26T11:57:08;15.02;;;8.27;;
71303;SDS011;59091;47.446;19.148;2022-10-26T11:59:40;15.38;;;8.80;;
71303;SDS011;59091;47.446;19.148;2022-10-26T12:02:30;14.57;;;8.18;;
71303;SDS011;59091;47.446;19.148;2022-10-26T12:05:34;14.18;;;8.48;;
71303;SDS011;59091;47.446;19.148;2022-10-26T12:08:32;16.35;;;8.57;;
71303;SDS011;59091;47.446;19.148;2022-10-26T12:19:05;17.70;;;9.27;;
71303;SDS011;59091;47.446;19.148;2022-10-26T12:21:39;19.65;;;9.50;;
71303;SDS011;59091;47.446;19.148;2022-10-26T12:29:36;13.02;;;8.93;;
71303;SDS011;59091;47.446;19.148;2022-10-26T12:32:04;21.23;;;9.27;;
71303;SDS011;59091;47.446;19.148;2022-10-26T12:37:22;16.25;;;8.18;;
71303;SDS011;59091;47.446;19.148;2022-10-26T12:42:57;15.52;;;7.70;;
71303;SDS011;59091;47.446;19.148;2022-10-26T12:45:39;15.35;;;8.57;;
71303;SDS011;59091;47.446;19.148;2022-10-26T12:48:37;13.07;;;8.40;;
71303;SDS011;59091;47.446;19.148;2022-10-26T12:53:53;20.67;;;8.68;;
71303;SDS011;59091;47.446;19.148;2022-10-26T12:56:27;18.38;;;9.48;;
71303;SDS011;59091;47.446;19.148;2022-10-26T13:01:49;15.38;;;9.05;;
71303;SDS011;59091;47.446;19.148;2022-10-26T13:04:35;17.38;;;8.65;;
71303;SDS011;59091;47.446;19.148;2022-10-26T13:09:49;14.98;;;8.75;;
71303;SDS011;59091;47.446;19.148;2022-10-26T13:12:35;17.60;;;9.70;;
71303;SDS011;59091;47.446;19.148;2022-10-26T13:17:57;13.85;;;8.27;;
71303;SDS011;59091;47.446;19.148;2022-10-26T13:20:26;14.23;;;9.05;;
71303;SDS011;59091;47.446;19.148;2022-10-26T13:22:54;14.82;;;9.15;;
71303;SDS011;59091;47.446;19.148;2022-10-26T13:25:23;16.48;;;9.77;;
71303;SDS011;59091;47.446;19.148;2022-10-26T13:27:57;19.20;;;9.48;;
71303;SDS011;59091;47.446;19.148;2022-10-26T13:32:57;25.50;;;10.07;;
71303;SDS011;59091;47.446;19.148;2022-10-26T13:35:24;16.20;;;9.15;;
71303;SDS011;59091;47.446;19.148;2022-10-26T13:37:52;15.32;;;8.63;;
71303;SDS011;59091;47.446;19.148;2022-10-26T13:40:23;16.33;;;9.27;;
71303;SDS011;59091;47.446;19.148;2022-10-26T13:42:54;16.38;;;9.80;;
71303;SDS011;59091;47.446;19.148;2022-10-26T13:45:28;17.00;;;9.20;;
71303;SDS011;59091;47.446;19.148;2022-10-26T13:48:06;13.90;;;8.20;;
71303;SDS011;59091;47.446;19.148;2022-10-26T13:50:48;17.73;;;8.80;;
71303;SDS011;59091;47.446;19.148;2022-10-26T13:53:21;18.20;;;8.63;;
71303;SDS011;59091;47.446;19.148;2022-10-26T13:55:53;15.18;;;8.75;;
71303;SDS011;59091;47.446;19.148;2022-10-26T13:58:33;16.35;;;8.65;;
71303;SDS011;59091;47.446;19.148;2022-10-26T14:03:38;14.30;;;8.25;;
71303;SDS011;59091;47.446;19.148;2022-10-26T14:06:06;17.95;;;9.15;;
71303;SDS011;59091;47.446;19.148;2022-10-26T14:08:35;17.33;;;9.48;;
71303;SDS011;59091;47.446;19.148;2022-10-26T14:11:06;17.25;;;8.75;;
71303;SDS011;59091;47.446;19.148;2022-10-26T14:13:36;20.58;;;9.95;;
71303;SDS011;59091;47.446;19.148;2022-10-26T14:16:01;22.42;;;9.98;;
71303;SDS011;59091;47.446;19.148;2022-10-26T14:18:32;17.50;;;9.07;;
71303;SDS011;59091;47.446;19.148;2022-10-26T14:21:03;16.20;;;9.00;;
71303;SDS011;59091;47.446;19.148;2022-10-26T14:23:43;17.10;;;9.38;;
71303;SDS011;59091;47.446;19.148;2022-10-26T14:26:21;14.68;;;8.90;;
71303;SDS011;59091;47.446;19.148;2022-10-26T14:28:55;16.20;;;9.25;;
71303;SDS011;59091;47.446;19.148;2022-10-26T14:31:27;18.27;;;9.32;;
71303;SDS011;59091;47.446;19.148;2022-10-26T14:33:54;19.92;;;9.57;;
71303;SDS011;59091;47.446;19.148;2022-10-26T14:38:59;19.85;;;7.90;;
71303;SDS011;59091;47.446;19.148;2022-10-26T14:41:29;19.33;;;8.45;;
71303;SDS011;59091;47.446;19.148;2022-10-26T14:43:56;19.33;;;8.70;;
71303;SDS011;59091;47.446;19.148;2022-10-26T14:46:23;17.60;;;8.55;;
71303;SDS011;59091;47.446;19.148;2022-10-26T14:48:50;15.85;;;8.50;;
71303;SDS011;59091;47.446;19.148;2022-10-26T14:51:18;24.58;;;9.10;;
71303;SDS011;59091;47.446;19.148;2022-10-26T14:53:52;14.30;;;8.30;;
71303;SDS011;59091;47.446;19.148;2022-10-26T14:56:23;16.08;;;9.05;;
71303;SDS011;59091;47.446;19.148;2022-10-26T14:58:48;20.50;;;9.32;;
71303;SDS011;59091;47.446;19.148;2022-10-26T15:06:33;19.23;;;9.15;;
71303;SDS011;59091;47.446;19.148;2022-10-26T15:09:03;17.20;;;9.45;;
71303;SDS011;59091;47.446;19.148;2022-10-26T15:11:32;15.93;;;9.70;;
71303;SDS011;59091;47.446;19.148;2022-10-26T15:13:59;18.70;;;10.30;;
71303;SDS011;59091;47.446;19.148;2022-10-26T15:16:26;22.63;;;10.23;;
71303;SDS011;59091;47.446;19.148;2022-10-26T15:18:57;22.88;;;10.45;;
71303;SDS011;59091;47.446;19.148;2022-10-26T15:21:34;17.88;;;10.68;;
71303;SDS011;59091;47.446;19.148;2022-10-26T15:24:09;19.73;;;9.63;;
71303;SDS011;59091;47.446;19.148;2022-10-26T15:26:47;17.25;;;10.80;;
71303;SDS011;59091;47.446;19.148;2022-10-26T15:32:18;19.75;;;10.43;;
71303;SDS011;59091;47.446;19.148;2022-10-26T15:34:47;28.20;;;13.10;;
71303;SDS011;59091;47.446;19.148;2022-10-26T15:37:14;27.08;;;13.18;;
71303;SDS011;59091;47.446;19.148;2022-10-26T15:39:39;26.95;;;12.27;;
71303;SDS011;59091;47.446;19.148;2022-10-26T15:42:06;25.48;;;12.75;;
71303;SDS011;59091;47.446;19.148;2022-10-26T15:44:37;22.45;;;11.85;;
71303;SDS011;59091;47.446;19.148;2022-10-26T15:47:02;19.90;;;11.73;;
71303;SDS011;59091;47.446;19.148;2022-10-26T15:49:27;19.85;;;10.30;;
71303;SDS011;59091;47.446;19.148;2022-10-26T15:51:53;27.98;;;12.05;;
71303;SDS011;59091;47.446;19.148;2022-10-26T15:54:19;33.90;;;12.98;;
71303;SDS011;59091;47.446;19.148;2022-10-26T15:56:45;21.10;;;11.95;;
71303;SDS011;59091;47.446;19.148;2022-10-26T15:59:15;20.83;;;11.63;;
71303;SDS011;59091;47.446;19.148;2022-10-26T16:01:42;19.50;;;12.23;;
71303;SDS011;59091;47.446;19.148;2022-10-26T16:04:08;23.98;;;11.63;;
71303;SDS011;59091;47.446;19.148;2022-10-26T16:06:35;24.52;;;11.98;;
71303;SDS011;59091;47.446;19.148;2022-10-26T16:09:02;23.98;;;11.98;;
71303;SDS011;59091;47.446;19.148;2022-10-26T16:11:29;23.08;;;12.43;;
71303;SDS011;59091;47.446;19.148;2022-10-26T16:13:55;30.80;;;12.75;;
71303;SDS011;59091;47.446;19.148;2022-10-26T16:16:21;25.08;;;13.05;;
71303;SDS011;59091;47.446;19.148;2022-10-26T16:18:47;29.10;;;13.32;;
71303;SDS011;59091;47.446;19.148;2022-10-26T16:21:17;29.70;;;14.73;;
71303;SDS011;59091;47.446;19.148;2022-10-26T16:23:45;24.55;;;13.10;;
71303;SDS011;59091;47.446;19.148;2022-10-26T16:26:11;26.83;;;14.20;;
71303;SDS011;59091;47.446;19.148;2022-10-26T16:28:36;31.63;;;14.93;;
71303;SDS011;59091;47.446;19.148;2022-10-26T16:31:03;27.52;;;14.85;;
71303;SDS011;59091;47.446;19.148;2022-10-26T16:33:31;31.88;;;15.32;;
71303;SDS011;59091;47.446;19.148;2022-10-26T16:35:58;36.92;;;17.23;;
71303;SDS011;59091;47.446;19.148;2022-10-26T16:38:24;33.75;;;16.75;;
71303;SDS011;59091;47.446;19.148;2022-10-26T16:41:00;32.50;;;16.75;;
71303;SDS011;59091;47.446;19.148;2022-10-26T16:43:27;34.45;;;16.98;;
71303;SDS011;59091;47.446;19.148;2022-10-26T16:45:54;31.25;;;16.40;;
71303;SDS011;59091;47.446;19.148;2022-10-26T16:48:19;29.83;;;15.50;;
71303;SDS011;59091;47.446;19.148;2022-10-26T16:50:44;29.75;;;14.32;;
71303;SDS011;59091;47.446;19.148;2022-10-26T16:53:10;31.15;;;14.85;;
71303;SDS011;59091;47.446;19.148;2022-10-26T16:55:35;32.08;;;14.82;;
71303;SDS011;59091;47.446;19.148;2022-10-26T16:58:06;33.53;;;16.00;;
71303;SDS011;59091;47.446;19.148;2022-10-26T17:00:33;26.65;;;14.48;;
71303;SDS011;59091;47.446;19.148;2022-10-26T17:02:59;27.67;;;14.50;;
71303;SDS011;59091;47.446;19.148;2022-10-26T17:05:26;29.88;;;15.10;;
71303;SDS011;59091;47.446;19.148;2022-10-26T17:07:52;27.85;;;15.35;;
71303;SDS011;59091;47.446;19.148;2022-10-26T17:10:18;35.05;;;15.95;;